Time;durP1;ratioP1;P1;durP2;ratioP2;P2;SDS_P1;SDS_P2;PMS_P1;PMS_P2;Temp;Humidity;BMP_temperature;BMP_pressure;BME280_temperature;BME280_humidity;BME280_pressure;Samples;Min_cycle;Max_cycle;Signal;HPM_P1;HPM_P2
2021/08/06 00:01:30;;;;;;;6.43;4.70;;;;;;;20.95;100.00;99782.84;1658862;86;21765;-64
2021/08/06 00:03:56;;;;;;;9.13;5.67;;;;;;;20.99;100.00;99789.20;1658380;86;21600;-63
2021/08/06 00:06:27;;;;;;;7.20;4.50;;;;;;;21.01;100.00;99792.37;1646898;85;21015;-63
2021/08/06 00:08:55;;;;;;;9.93;5.00;;;;;;;21.00;100.00;99788.66;1658791;85;20968;-63
2021/08/06 00:11:29;;;;;;;9.07;5.27;;;;;;;20.99;100.00;99783.90;1652085;86;21040;-63
2021/08/06 00:13:56;;;;;;;7.73;4.87;;;;;;;20.97;100.00;99787.33;1694529;83;21149;-61
2021/08/06 00:16:25;;;;;;;9.57;4.83;;;;;;;20.97;100.00;99791.30;1658723;85;20999;-64
2021/08/06 00:18:52;;;;;;;7.63;5.27;;;;;;;20.97;100.00;99791.30;1659026;86;20967;-61
2021/08/06 00:21:19;;;;;;;8.17;5.10;;;;;;;20.95;100.00;99788.64;1620883;87;20935;-63
2021/08/06 00:23:46;;;;;;;7.30;5.47;;;;;;;20.87;100.00;99786.80;1658730;85;21089;-64
2021/08/06 00:26:13;;;;;;;7.43;5.30;;;;;;;20.82;100.00;99788.63;1658193;85;21157;-62
2021/08/06 00:28:41;;;;;;;9.67;5.67;;;;;;;20.79;100.00;99795.23;1647242;85;21066;-63
2021/08/06 00:31:07;;;;;;;7.50;5.53;;;;;;;20.76;100.00;99789.16;1658249;85;21023;-63
2021/08/06 00:33:34;;;;;;;6.77;5.50;;;;;;;20.73;100.00;99784.91;1647264;85;21078;-64
2021/08/06 00:36:02;;;;;;;8.40;5.50;;;;;;;20.71;100.00;99784.36;1654113;86;21031;-64
2021/08/06 00:38:30;;;;;;;9.30;5.93;;;;;;;20.70;100.00;99784.10;1658695;86;21791;-64
2021/08/06 00:40:57;;;;;;;9.43;6.73;;;;;;;20.68;100.00;99786.20;1647234;85;20975;-63
2021/08/06 00:43:26;;;;;;;8.93;6.37;;;;;;;20.67;100.00;99793.36;1658669;85;21474;-63
2021/08/06 00:45:54;;;;;;;9.60;6.37;;;;;;;20.61;100.00;99781.97;1620626;86;21153;-64
2021/08/06 00:48:23;;;;;;;7.77;5.47;;;;;;;20.58;100.00;99782.48;1658543;86;21056;-63
2021/08/06 00:50:53;;;;;;;10.80;6.90;;;;;;;20.55;100.00;99780.34;1622022;86;21168;-64
2021/08/06 00:53:21;;;;;;;9.40;5.60;;;;;;;20.56;100.00;99789.09;1658223;85;21586;-63
2021/08/06 00:55:48;;;;;;;11.60;5.80;;;;;;;20.53;100.00;99791.74;1647347;85;21512;-63
2021/08/06 00:58:17;;;;;;;7.37;6.10;;;;;;;20.52;100.00;99790.13;1658062;85;20960;-63
2021/08/06 01:00:48;;;;;;;10.10;6.50;;;;;;;20.52;100.00;99794.09;1646997;85;21081;-61
2021/08/06 01:03:42;;;;;;;8.93;6.43;;;;;;;20.51;100.00;99789.88;1658669;86;21133;-63
2021/08/06 01:06:21;;;;;;;9.27;6.63;;;;;;;20.50;100.00;99792.26;1646970;85;21093;-65
2021/08/06 01:08:57;;;;;;;8.03;6.17;;;;;;;20.48;100.00;99788.23;1658984;85;21074;-63
2021/08/06 01:11:26;;;;;;;7.03;5.67;;;;;;;20.44;100.00;99778.69;1658409;86;21596;-62
2021/08/06 01:13:56;;;;;;;8.88;6.33;;;;;;;20.44;100.00;99775.25;1647288;85;21040;-63
2021/08/06 01:16:31;;;;;;;10.28;7.03;;;;;;;20.43;100.00;99785.58;1633409;85;23749;-64
2021/08/06 01:19:50;;;;;;;8.17;6.73;;;;;;;20.40;100.00;99781.06;1646861;85;21022;-62
2021/08/06 01:22:24;;;;;;;7.37;6.27;;;;;;;20.36;100.00;99779.20;1657023;85;21569;-64
2021/08/06 01:25:17;;;;;;;9.40;5.97;;;;;;;20.29;100.00;99773.34;1658609;86;21273;-63
2021/08/06 01:27:51;;;;;;;9.80;6.22;;;;;;;20.28;100.00;99779.17;1630071;86;21003;-61
2021/08/06 01:30:21;;;;;;;12.10;7.17;;;;;;;20.23;100.00;99780.98;1632562;86;21142;-61
2021/08/06 01:32:48;;;;;;;9.77;7.03;;;;;;;20.18;100.00;99784.41;1631943;86;21062;-64
2021/08/06 01:35:16;;;;;;;11.27;7.70;;;;;;;20.14;100.00;99782.80;1647163;85;21601;-64
2021/08/06 01:37:43;;;;;;;9.53;7.33;;;;;;;20.13;100.00;99790.48;1658655;86;21513;-62
2021/08/06 01:40:10;;;;;;;10.53;7.57;;;;;;;20.13;100.00;99790.48;1658675;86;21101;-63
2021/08/06 01:42:58;;;;;;;9.93;6.63;;;;;;;20.11;100.00;99785.16;1647016;85;22324;-64
2021/08/06 01:45:28;;;;;;;9.23;6.90;;;;;;;20.10;100.00;99789.66;1658411;85;21003;-63
2021/08/06 01:47:55;;;;;;;11.17;7.13;;;;;;;20.08;100.00;99783.84;1658789;86;21530;-63
2021/08/06 01:50:34;;;;;;;9.10;6.87;;;;;;;20.05;100.00;99784.35;1646095;85;21011;-63
2021/08/06 01:53:11;;;;;;;13.13;6.47;;;;;;;20.02;100.00;99787.50;1658082;86;20975;-62
2021/08/06 01:56:03;;;;;;;9.87;6.70;;;;;;;20.00;100.00;99798.06;1646587;85;21139;-64
2021/08/06 01:58:50;;;;;;;10.77;8.03;;;;;;;19.98;100.00;99800.19;1655610;85;21018;-64
2021/08/06 02:01:18;;;;;;;8.33;6.60;;;;;;;19.95;100.00;99789.58;1646885;85;21050;-61
2021/08/06 02:03:46;;;;;;;11.47;7.80;;;;;;;19.94;100.00;99780.06;1690924;83;20939;-64
2021/08/06 02:06:24;;;;;;;9.27;7.57;;;;;;;19.93;100.00;99780.59;1676909;84;21122;-65
2021/08/06 02:08:53;;;;;;;13.17;7.07;;;;;;;19.95;100.00;99774.23;1675178;85;21259;-64
2021/08/06 02:11:22;;;;;;;11.47;7.83;;;;;;;19.96;100.00;99777.94;1619069;87;21582;-63
2021/08/06 02:13:51;;;;;;;10.87;7.20;;;;;;;19.99;100.00;99776.64;1648311;86;22546;-64
2021/08/06 02:16:18;;;;;;;13.23;8.00;;;;;;;20.01;100.00;99771.91;1649499;86;20942;-63
2021/08/06 02:18:51;;;;;;;14.23;8.90;;;;;;;20.06;100.00;99778.00;1637891;86;21371;-62
2021/08/06 02:21:24;;;;;;;12.77;8.70;;;;;;;20.07;100.00;99779.59;1649354;86;21139;-62
2021/08/06 02:23:51;;;;;;;12.83;7.60;;;;;;;20.10;100.00;99773.78;1648154;86;21300;-63
2021/08/06 02:26:19;;;;;;;14.57;8.77;;;;;;;20.15;100.00;99776.47;1648957;85;21085;-64
2021/08/06 02:28:50;;;;;;;9.33;7.90;;;;;;;20.20;100.00;99773.05;1626065;86;21070;-61
2021/08/06 02:31:18;;;;;;;14.73;7.73;;;;;;;20.27;100.00;99772.81;1625777;86;21647;-63
2021/08/06 02:33:47;;;;;;;12.37;8.77;;;;;;;20.32;100.00;99775.47;1624834;86;21149;-63
2021/08/06 02:36:15;;;;;;;10.63;7.27;;;;;;;20.35;100.00;99780.26;1611643;86;21018;-62
2021/08/06 02:38:44;;;;;;;9.97;7.57;;;;;;;20.41;100.00;99779.20;1644844;86;22575;-63
2021/08/06 02:41:10;;;;;;;10.07;7.33;;;;;;;20.44;100.00;99774.72;1649290;85;21525;-64
2021/08/06 02:43:42;;;;;;;15.50;7.57;;;;;;;20.51;100.00;99769.22;1648670;86;20973;-64
2021/08/06 02:46:09;;;;;;;11.18;7.97;;;;;;;20.59;100.00;99768.17;1636125;86;21162;-64
2021/08/06 02:48:37;;;;;;;10.00;7.03;;;;;;;20.65;100.00;99772.97;1625034;86;21601;-61
2021/08/06 02:51:03;;;;;;;12.13;7.30;;;;;;;20.74;100.00;99771.92;1626759;86;21062;-64
2021/08/06 02:53:30;;;;;;;9.37;7.73;;;;;;;20.80;100.00;99766.38;1633674;86;21145;-63
2021/08/06 02:55:57;;;;;;;9.80;7.10;;;;;;;20.86;100.00;99769.82;1644950;86;21007;-64
2021/08/06 02:58:25;;;;;;;10.30;6.97;;;;;;;20.95;100.00;99765.61;1648234;86;22280;-64
2021/08/06 03:00:52;;;;;;;8.63;7.03;;;;;;;21.02;100.00;99764.80;1686000;78;21181;-62
2021/08/06 03:03:19;;;;;;;9.30;6.83;;;;;;;21.12;100.00;99762.16;1801805;79;21054;-65
2021/08/06 03:05:46;;;;;;;11.03;7.23;;;;;;;21.23;100.00;99765.63;1785904;79;20955;-65
2021/08/06 03:08:13;;;;;;;13.63;7.53;;;;;;;21.37;100.00;99760.09;1797936;79;20885;-61
2021/08/06 03:10:40;;;;;;;11.33;6.83;;;;;;;21.53;100.00;99754.77;1780009;79;21109;-64
2021/08/06 03:13:08;;;;;;;10.50;7.00;;;;;;;21.76;100.00;99750.73;1789496;78;20959;-63
2021/08/06 03:15:35;;;;;;;10.43;7.07;;;;;;;21.98;100.00;99753.86;1790310;79;22248;-63
2021/08/06 03:18:02;;;;;;;10.10;7.00;;;;;;;22.16;100.00;99748.53;1791896;79;21498;-64
2021/08/06 03:20:30;;;;;;;9.30;6.87;;;;;;;22.31;100.00;99744.48;1797372;79;21031;-61
2021/08/06 03:22:58;;;;;;;10.17;6.27;;;;;;;22.50;100.00;99745.16;1803441;79;21354;-61
2021/08/06 03:25:25;;;;;;;8.37;6.33;;;;;;;22.73;100.00;99740.52;1800106;78;21517;-64
2021/08/06 03:27:55;;;;;;;9.30;6.67;;;;;;;23.20;100.00;99736.47;1804687;78;20936;-64
2021/08/06 03:30:24;;;;;;;11.77;6.47;;;;;;;23.88;100.00;99723.58;1799134;78;21501;-65
2021/08/06 03:32:50;;;;;;;10.07;7.23;;;;;;;24.60;100.00;99711.48;1800380;79;21023;-64
2021/08/06 03:35:17;;;;;;;8.23;6.73;;;;;;;25.21;100.00;99707.85;1790805;78;21137;-63
2021/08/06 03:37:45;;;;;;;12.17;7.30;;;;;;;25.77;100.00;99707.37;1800579;79;21341;-64
2021/08/06 03:40:13;;;;;;;9.90;6.93;;;;;;;26.33;100.00;99704.08;1785676;79;21509;-65
2021/08/06 03:42:40;;;;;;;11.07;7.70;;;;;;;26.88;100.00;99707.92;1803931;79;21322;-63
2021/08/06 03:45:10;;;;;;;11.53;7.10;;;;;;;27.32;100.00;99707.11;1798337;79;22359;-63
2021/08/06 03:47:37;;;;;;;9.88;7.17;;;;;;;27.77;100.00;99699.49;1771032;79;21096;-64
2021/08/06 03:50:06;;;;;;;12.20;7.65;;;;;;;28.20;100.00;99694.23;1785226;79;21446;-64
2021/08/06 03:52:34;;;;;;;10.25;7.08;;;;;;;28.68;96.51;99695.18;1804091;78;21466;-64
2021/08/06 03:55:01;;;;;;;11.28;7.42;;;;;;;29.04;89.63;99701.00;1787201;79;22375;-64
2021/08/06 03:57:29;;;;;;;12.73;7.42;;;;;;;29.38;84.73;99698.52;1804034;79;21138;-64
2021/08/06 03:59:55;;;;;;;9.23;7.20;;;;;;;29.75;79.18;99700.99;1781794;78;21838;-66
2021/08/06 04:02:22;;;;;;;10.03;7.47;;;;;;;29.99;74.01;99699.02;1800781;78;20967;-65
2021/08/06 04:04:49;;;;;;;11.80;7.80;;;;;;;30.21;70.97;99701.98;1803560;78;21078;-63
2021/08/06 04:07:16;;;;;;;11.43;7.58;;;;;;;30.54;68.38;99704.73;1793028;78;21480;-63
2021/08/06 04:09:42;;;;;;;10.70;7.75;;;;;;;31.00;63.25;99699.63;1806665;78;21106;-63
2021/08/06 04:12:09;;;;;;;13.08;8.80;;;;;;;31.38;60.22;99703.20;1800321;78;21009;-63
2021/08/06 04:14:37;;;;;;;12.90;7.80;;;;;;;31.73;58.02;99705.66;1782292;78;21461;-61
2021/08/06 04:17:04;;;;;;;11.60;8.38;;;;;;;32.06;54.44;99704.75;1806815;78;20998;-63
2021/08/06 04:19:32;;;;;;;16.60;8.83;;;;;;;32.40;52.44;99710.75;1795881;78;21259;-63
2021/08/06 04:22:00;;;;;;;12.15;8.98;;;;;;;32.65;49.81;99708.16;1800363;78;21014;-63
2021/08/06 04:24:27;;;;;;;10.85;9.70;;;;;;;32.75;48.79;99698.02;1783750;78;21134;-62
2021/08/06 04:26:56;;;;;;;11.80;9.50;;;;;;;32.93;48.66;99691.16;1741569;81;20920;-62
2021/08/06 04:29:23;;;;;;;12.68;9.48;;;;;;;33.16;47.22;99689.46;1752964;81;21034;-63
2021/08/06 04:31:49;;;;;;;14.45;8.88;;;;;;;33.20;46.67;99691.47;1756305;81;21602;-65
2021/08/06 04:34:16;;;;;;;11.85;9.48;;;;;;;33.27;46.40;99694.34;1812298;78;21094;-63
2021/08/06 04:36:43;;;;;;;10.20;8.83;;;;;;;33.39;45.75;99695.59;1814720;78;21125;-62
2021/08/06 04:39:11;;;;;;;12.82;9.48;;;;;;;33.36;45.59;99694.94;1812067;78;20963;-61
2021/08/06 04:41:37;;;;;;;12.23;9.48;;;;;;;33.43;45.50;99689.14;1803620;78;22373;-63
2021/08/06 04:44:04;;;;;;;15.20;10.48;;;;;;;33.74;45.52;99704.34;1810204;78;20954;-63
2021/08/06 04:46:33;;;;;;;11.08;8.25;;;;;;;34.14;44.33;99702.16;1812542;78;21501;-64
2021/08/06 04:49:00;;;;;;;9.10;8.05;;;;;;;34.43;43.02;99694.59;1788284;78;21399;-63
2021/08/06 04:51:29;;;;;;;12.37;7.83;;;;;;;34.66;42.26;99690.61;1813991;78;21587;-63
2021/08/06 04:53:56;;;;;;;9.03;8.03;;;;;;;34.83;42.06;99697.50;1801693;78;21065;-64
2021/08/06 04:56:24;;;;;;;8.35;6.90;;;;;;;35.03;40.67;99698.26;1812441;78;21456;-63
2021/08/06 04:58:50;;;;;;;9.55;6.45;;;;;;;35.13;41.22;99694.17;1799297;78;21034;-62
2021/08/06 05:01:17;;;;;;;12.60;7.00;;;;;;;35.39;40.28;99693.43;1804069;78;21127;-63
2021/08/06 05:03:44;;;;;;;10.85;7.05;;;;;;;35.70;39.43;99691.01;1796386;78;20954;-63
2021/08/06 05:06:11;;;;;;;8.88;6.62;;;;;;;35.94;38.81;99689.77;1812943;79;20987;-64
2021/08/06 05:08:43;;;;;;;8.58;6.60;;;;;;;36.06;39.06;99695.77;1802331;78;21053;-64
2021/08/06 05:11:09;;;;;;;9.05;6.55;;;;;;;36.32;38.74;99690.65;1801492;79;21136;-63
2021/08/06 05:13:36;;;;;;;8.35;6.17;;;;;;;36.49;37.40;99688.75;1812172;78;23094;-63
2021/08/06 05:16:05;;;;;;;8.28;6.35;;;;;;;36.52;37.64;99688.78;1785582;78;22484;-63
2021/08/06 05:18:31;;;;;;;12.25;7.20;;;;;;;36.80;37.15;99688.86;1799550;78;21038;-63
2021/08/06 05:20:58;;;;;;;10.15;6.28;;;;;;;37.05;35.96;99691.03;1812182;78;21007;-63
2021/08/06 05:23:25;;;;;;;11.43;6.97;;;;;;;36.95;36.80;99700.67;1793253;78;21329;-63
2021/08/06 05:25:52;;;;;;;8.53;5.78;;;;;;;37.01;36.72;99697.24;1799270;78;21815;-64
2021/08/06 05:28:19;;;;;;;8.83;5.10;;;;;;;37.26;36.71;99691.98;1795662;79;20936;-64
2021/08/06 05:30:45;;;;;;;9.35;6.08;;;;;;;37.53;37.10;99691.03;1810375;78;20955;-61
2021/08/06 05:33:12;;;;;;;12.28;5.95;;;;;;;37.74;36.11;99686.50;1812761;78;22454;-64
2021/08/06 05:35:39;;;;;;;12.65;6.10;;;;;;;37.78;35.76;99692.55;1794634;78;21038;-63
2021/08/06 05:38:06;;;;;;;8.90;4.92;;;;;;;37.72;35.38;99689.39;1783124;78;21136;-62
2021/08/06 05:40:33;;;;;;;7.70;5.45;;;;;;;37.61;35.77;99688.55;1793346;78;20967;-63
2021/08/06 05:43:01;;;;;;;9.20;6.00;;;;;;;37.66;36.23;99688.22;1797160;78;21058;-64
2021/08/06 05:45:29;;;;;;;7.95;4.47;;;;;;;37.50;36.10;99692.56;1798910;78;21332;-64
2021/08/06 05:47:56;;;;;;;6.30;4.83;;;;;;;37.00;36.95;99699.73;1806890;78;21582;-63
2021/08/06 05:50:26;;;;;;;32.88;7.60;;;;;;;36.57;37.88;99709.39;1804433;78;21877;-64
2021/08/06 05:52:53;;;;;;;10.32;5.42;;;;;;;35.91;38.39;99712.20;1801512;78;21035;-63
2021/08/06 05:55:21;;;;;;;8.28;4.78;;;;;;;35.33;40.39;99703.78;1812365;78;22528;-64
2021/08/06 05:57:49;;;;;;;8.38;5.10;;;;;;;35.00;41.60;99706.53;1802582;78;21055;-62
2021/08/06 06:00:17;;;;;;;7.58;4.58;;;;;;;34.89;43.84;99706.88;1793286;78;20992;-64
2021/08/06 06:02:46;;;;;;;7.42;4.42;;;;;;;35.42;43.20;99699.45;1812172;78;21106;-62
2021/08/06 06:05:14;;;;;;;6.95;4.50;;;;;;;36.20;41.05;99693.03;1786262;78;20950;-61
2021/08/06 06:07:46;;;;;;;5.75;4.20;;;;;;;36.66;40.02;99691.44;1801496;78;20945;-61
2021/08/06 06:10:12;;;;;;;7.37;3.92;;;;;;;37.06;38.33;99684.47;1793592;78;20903;-61
2021/08/06 06:12:40;;;;;;;8.78;4.50;;;;;;;37.41;37.34;99682.58;1804082;78;21458;-61
2021/08/06 06:15:08;;;;;;;7.42;4.45;;;;;;;37.49;37.03;99689.06;1812388;78;21145;-62
2021/08/06 06:17:37;;;;;;;9.53;4.60;;;;;;;37.49;37.06;99695.87;1800102;79;21010;-62
2021/08/06 06:20:05;;;;;;;7.28;4.65;;;;;;;37.42;36.81;99694.45;1796173;78;21030;-61
2021/08/06 06:22:32;;;;;;;5.90;3.50;;;;;;;37.05;36.44;99701.31;1802943;79;21457;-62
2021/08/06 06:25:00;;;;;;;8.30;3.90;;;;;;;36.89;36.00;99693.39;1807803;78;21535;-62
2021/08/06 06:27:29;;;;;;;5.42;3.17;;;;;;;37.19;36.75;99688.44;1812828;79;24260;-62
2021/08/06 06:29:55;;;;;;;6.08;3.10;;;;;;;37.72;34.47;99689.39;1810153;78;20944;-62
2021/08/06 06:32:24;;;;;;;6.05;2.67;;;;;;;38.20;33.01;99687.90;1771549;80;20942;-61
2021/08/06 06:34:51;;;;;;;6.28;2.80;;;;;;;38.35;31.77;99688.76;1796626;78;21002;-63
2021/08/06 06:37:18;;;;;;;4.62;3.40;;;;;;;38.03;31.79;99687.23;1800714;78;20967;-64
2021/08/06 06:39:45;;;;;;;5.65;3.27;;;;;;;37.64;32.25;99695.38;1806860;78;22100;-61
2021/08/06 06:42:12;;;;;;;5.62;3.20;;;;;;;37.21;32.32;99691.57;1812554;79;20952;-65
2021/08/06 06:44:39;;;;;;;6.37;3.45;;;;;;;36.83;32.50;99685.98;1806239;78;21563;-63
2021/08/06 06:47:06;;;;;;;7.90;3.90;;;;;;;36.77;33.00;99678.73;1798781;78;20980;-63
2021/08/06 06:49:35;;;;;;;6.08;3.60;;;;;;;36.70;33.07;99675.95;1808901;78;21572;-63
2021/08/06 06:52:03;;;;;;;4.87;3.00;;;;;;;36.46;33.23;99678.59;1800917;78;21130;-64
2021/08/06 06:54:30;;;;;;;5.80;3.37;;;;;;;36.31;33.83;99679.02;1803221;79;20963;-64
2021/08/06 06:56:56;;;;;;;5.83;3.17;;;;;;;36.19;34.65;99692.84;1730840;81;21594;-64
2021/08/06 06:59:24;;;;;;;5.95;3.37;;;;;;;36.14;34.38;99689.08;1803971;79;21059;-64
2021/08/06 07:01:51;;;;;;;14.45;4.35;;;;;;;36.04;35.09;99685.09;1791363;79;21276;-65
2021/08/06 07:04:17;;;;;;;6.05;3.95;;;;;;;35.91;35.53;99680.43;1799548;78;21154;-64
2021/08/06 07:06:44;;;;;;;7.47;3.87;;;;;;;35.95;35.65;99685.35;1808246;78;21399;-64
2021/08/06 07:09:11;;;;;;;9.00;4.30;;;;;;;35.68;35.50;99684.58;1802587;78;20980;-61
2021/08/06 07:11:38;;;;;;;10.93;5.25;;;;;;;35.40;36.00;99683.57;1794859;78;21062;-64
2021/08/06 07:14:05;;;;;;;8.28;5.05;;;;;;;35.39;36.82;99683.95;1799678;78;20990;-65
2021/08/06 07:16:32;;;;;;;7.95;5.20;;;;;;;35.41;37.28;99679.70;1811857;79;21363;-64
2021/08/06 07:18:59;;;;;;;6.92;4.72;;;;;;;35.34;37.65;99683.66;1793015;78;20963;-66
2021/08/06 07:21:26;;;;;;;7.90;3.67;;;;;;;35.09;36.09;99674.58;1799349;78;21099;-64
2021/08/06 07:23:52;;;;;;;8.85;4.25;;;;;;;34.85;34.23;99674.89;1811821;78;21070;-64
2021/08/06 07:26:20;;;;;;;8.40;3.37;;;;;;;34.92;33.86;99668.25;1801757;78;20912;-64
2021/08/06 07:28:47;;;;;;;8.15;4.00;;;;;;;35.19;33.54;99659.63;1810467;78;21140;-65
2021/08/06 07:31:13;;;;;;;5.62;3.98;;;;;;;35.54;33.46;99649.94;1812729;78;20959;-62
2021/08/06 07:33:40;;;;;;;8.15;3.55;;;;;;;36.06;32.33;99648.87;1812081;78;20984;-65
2021/08/06 07:36:07;;;;;;;6.42;3.33;;;;;;;36.48;32.13;99644.53;1800789;79;22205;-64
2021/08/06 07:38:34;;;;;;;9.20;3.45;;;;;;;36.91;31.52;99631.91;1800251;78;20975;-64
2021/08/06 07:41:00;;;;;;;7.17;3.30;;;;;;;37.46;31.22;99629.23;1780850;79;21495;-65
2021/08/06 07:43:28;;;;;;;4.40;2.98;;;;;;;37.77;30.59;99623.74;1800845;78;21020;-65
2021/08/06 07:45:54;;;;;;;3.52;2.55;;;;;;;37.84;30.19;99619.70;1804742;78;21406;-64
2021/08/06 07:48:22;;;;;;;7.10;3.17;;;;;;;38.16;29.06;99609.55;1785883;78;20895;-63
2021/08/06 07:50:50;;;;;;;8.78;2.52;;;;;;;38.32;28.77;99609.95;1803809;78;21441;-64
2021/08/06 07:53:16;;;;;;;7.15;3.02;;;;;;;38.09;28.22;99614.96;1791910;78;21863;-64
2021/08/06 07:55:44;;;;;;;6.72;2.60;;;;;;;37.81;27.88;99620.48;1803659;78;20872;-64
2021/08/06 07:58:11;;;;;;;7.30;2.90;;;;;;;37.45;28.37;99612.72;1804031;78;21037;-64
2021/08/06 08:00:39;;;;;;;6.12;2.70;;;;;;;37.25;28.61;99614.91;1812967;78;20927;-60
2021/08/06 08:03:06;;;;;;;5.78;2.52;;;;;;;37.11;28.98;99603.94;1800885;78;21433;-65
2021/08/06 08:05:35;;;;;;;5.62;2.40;;;;;;;37.18;28.99;99605.36;1801041;79;21150;-64
2021/08/06 08:08:07;;;;;;;7.72;3.27;;;;;;;37.38;28.89;99593.04;1796668;78;21050;-64
2021/08/06 08:10:36;;;;;;;8.50;2.92;;;;;;;37.41;28.33;99595.03;1810546;78;20943;-65
2021/08/06 08:13:05;;;;;;;8.93;3.15;;;;;;;37.14;29.31;99597.76;1808150;78;20980;-65
2021/08/06 08:15:34;;;;;;;7.35;2.72;;;;;;;37.04;28.78;99585.65;1797312;78;26205;-65
2021/08/06 08:18:01;;;;;;;7.37;3.20;;;;;;;36.99;28.67;99597.66;1797003;78;21908;-64
2021/08/06 08:20:29;;;;;;;6.17;3.17;;;;;;;36.79;28.66;99593.60;1810355;78;21054;-64
2021/08/06 08:22:56;;;;;;;8.75;3.05;;;;;;;36.41;29.21;99590.14;1791578;78;21073;-63
2021/08/06 08:25:23;;;;;;;5.15;3.40;;;;;;;36.16;29.44;99585.81;1809482;78;21565;-61
2021/08/06 08:27:50;;;;;;;10.20;2.90;;;;;;;36.01;30.21;99586.23;1793979;78;20993;-65
2021/08/06 08:30:18;;;;;;;9.75;2.70;;;;;;;36.11;30.13;99601.08;1807042;78;21474;-65
2021/08/06 08:32:46;;;;;;;4.40;2.47;;;;;;;36.10;29.61;99584.58;1771260;80;21197;-63
2021/08/06 08:35:13;;;;;;;4.30;2.60;;;;;;;36.08;29.33;99592.32;1747278;82;21109;-64
2021/08/06 08:41:27;;;;;;;7.50;2.67;;;;;;;36.26;29.81;99585.73;1738137;82;21603;-66
2021/08/06 08:43:56;;;;;;;6.60;2.53;;;;;;;36.61;28.46;99577.73;1765117;80;21155;-65
2021/08/06 08:46:27;;;;;;;8.13;2.80;;;;;;;36.75;28.35;99580.58;1739263;82;21079;-65
2021/08/06 08:48:59;;;;;;;4.75;2.47;;;;;;;36.83;27.40;99589.56;1755615;80;21503;-64
2021/08/06 08:51:28;;;;;;;6.87;2.85;;;;;;;36.76;27.37;99586.20;1742401;82;21094;-63
2021/08/06 08:53:56;;;;;;;9.33;2.98;;;;;;;36.73;27.45;99562.51;1760250;80;20977;-65
2021/08/06 08:56:24;;;;;;;9.73;3.90;;;;;;;36.82;27.93;99562.17;1759100;80;21130;-63
2021/08/06 08:58:51;;;;;;;8.03;3.33;;;;;;;37.00;27.63;99570.68;1759515;80;21037;-65
2021/08/06 09:01:19;;;;;;;9.78;4.00;;;;;;;37.42;27.08;99561.24;1753764;80;21054;-61
2021/08/06 09:03:48;;;;;;;8.10;2.67;;;;;;;37.84;26.99;99576.17;1756177;80;22384;-67
2021/08/06 09:06:41;;;;;;;4.22;2.55;;;;;;;37.96;25.83;99558.73;1751715;80;21054;-63
2021/08/06 09:09:21;;;;;;;6.65;2.70;;;;;;;37.67;25.67;99570.10;1755284;80;21007;-61
2021/08/06 09:12:09;;;;;;;6.30;2.58;;;;;;;37.22;25.99;99559.37;1751689;80;21238;-64
2021/08/06 09:14:47;;;;;;;5.70;2.35;;;;;;;37.16;26.85;99559.52;1759961;80;20970;-61
2021/08/06 09:17:15;;;;;;;7.83;2.90;;;;;;;37.32;26.53;99551.67;1757383;80;21068;-66
2021/08/06 09:19:54;;;;;;;4.55;2.50;;;;;;;37.26;26.29;99547.16;1757469;80;21002;-65
2021/08/06 09:22:26;;;;;;;5.87;2.60;;;;;;;37.22;26.40;99545.78;1757163;80;21131;-64
2021/08/06 09:25:11;;;;;;;5.70;2.45;;;;;;;37.10;26.85;99551.54;1757291;79;21465;-66
2021/08/06 09:27:48;;;;;;;8.23;2.90;;;;;;;37.03;26.44;99546.06;1757660;79;21386;-65
2021/08/06 09:30:35;;;;;;;6.42;3.30;;;;;;;37.05;27.34;99542.37;1758989;79;21019;-64
2021/08/06 09:33:02;;;;;;;10.20;3.67;;;;;;;37.23;26.77;99548.69;1758479;79;21006;-65
2021/08/06 09:35:31;;;;;;;4.90;2.90;;;;;;;37.32;26.50;99541.57;1753014;79;21138;-65
2021/08/06 09:37:58;;;;;;;5.55;2.67;;;;;;;37.35;26.62;99542.14;1759577;79;20991;-65
2021/08/06 09:40:31;;;;;;;4.72;3.00;;;;;;;37.38;26.50;99531.88;1767422;79;21514;-66
2021/08/06 09:43:05;;;;;;;6.22;2.65;;;;;;;37.48;27.06;99535.26;1766738;79;21004;-65
2021/08/06 09:45:40;;;;;;;6.45;2.62;;;;;;;37.78;26.11;99529.34;1763708;79;20975;-66
2021/08/06 09:48:08;;;;;;;5.40;2.60;;;;;;;37.80;26.02;99538.66;1758054;79;21611;-65
2021/08/06 09:50:44;;;;;;;5.80;2.75;;;;;;;37.81;26.17;99523.91;1759392;79;20911;-63
2021/08/06 09:53:12;;;;;;;9.13;3.00;;;;;;;37.90;26.37;99524.34;1761739;79;21907;-64
2021/08/06 09:55:46;;;;;;;3.90;2.17;;;;;;;37.94;26.47;99519.69;1766111;79;21477;-65
2021/08/06 09:58:17;;;;;;;7.50;2.62;;;;;;;37.95;26.04;99519.09;1762790;79;21078;-64
2021/08/06 10:00:49;;;;;;;7.83;3.08;;;;;;;37.94;26.43;99514.24;1754507;79;21127;-65
2021/08/06 10:03:29;;;;;;;5.83;3.00;;;;;;;37.78;27.01;99517.88;1755305;79;21546;-64
2021/08/06 10:06:19;;;;;;;;;;;;;;;37.67;26.67;99517.06;1740091;81;21038;-64
2021/08/06 10:08:46;;;;;;;7.72;2.70;;;;;;;37.34;26.64;99514.77;1743042;81;20462;-61
2021/08/06 10:11:13;;;;;;;5.90;2.50;;;;;;;36.92;27.05;99510.64;1739643;81;21055;-64
2021/08/06 10:13:43;;;;;;;8.38;3.00;;;;;;;36.68;28.05;99509.33;1748428;81;20972;-66
2021/08/06 10:16:12;;;;;;;3.90;2.35;;;;;;;36.63;28.38;99507.53;1740566;81;21529;-64
2021/08/06 10:18:41;;;;;;;5.37;2.95;;;;;;;36.65;28.20;99509.30;1733904;81;20983;-64
2021/08/06 10:21:09;;;;;;;5.12;2.50;;;;;;;36.62;27.93;99526.34;1730924;81;20984;-64
2021/08/06 10:23:37;;;;;;;4.67;2.65;;;;;;;36.40;27.87;99500.34;1738554;81;20976;-63
2021/08/06 10:26:08;;;;;;;4.75;2.83;;;;;;;36.09;28.59;99509.00;1711034;81;21135;-65
2021/08/06 10:28:36;;;;;;;9.88;3.90;;;;;;;35.94;28.84;99503.97;1722924;81;21773;-64
2021/08/06 10:31:21;;;;;;;4.87;2.87;;;;;;;35.72;28.75;99502.96;1721775;83;21048;-67
2021/08/06 10:34:10;;;;;;;11.18;3.00;;;;;;;35.40;28.95;99506.05;1720117;83;20952;-61
2021/08/06 10:36:46;;;;;;;8.75;3.02;;;;;;;35.05;29.78;99497.67;1717151;83;21434;-63
2021/08/06 10:39:41;;;;;;;3.92;2.62;;;;;;;35.10;30.13;99493.86;1691704;82;21074;-62
2021/08/06 10:42:10;;;;;;;5.95;2.95;;;;;;;35.41;29.50;99494.64;1725377;81;22394;-66
2021/08/06 10:44:57;;;;;;;7.08;3.17;;;;;;;35.66;29.33;99490.91;1725058;81;20924;-67
2021/08/06 10:47:43;;;;;;;6.10;2.87;;;;;;;35.62;29.28;99492.80;1714003;82;21454;-63
2021/08/06 10:50:18;;;;;;;4.40;2.85;;;;;;;35.59;28.79;99486.17;1704209;82;20968;-64
2021/08/06 10:53:13;;;;;;;7.87;2.90;;;;;;;35.65;28.68;99468.98;1723167;81;21138;-67
2021/08/06 10:55:41;;;;;;;9.10;2.98;;;;;;;35.83;28.63;99465.89;1720661;81;20991;-65
2021/08/06 10:58:08;;;;;;;5.40;3.12;;;;;;;36.19;28.37;99458.13;1729623;81;20876;-65
2021/08/06 11:00:36;;;;;;;8.25;3.90;;;;;;;36.36;27.91;99435.76;1698234;82;22385;-65
2021/08/06 11:03:03;;;;;;;10.75;3.17;;;;;;;36.43;28.48;99435.03;1701158;81;21063;-66
2021/08/06 11:05:38;;;;;;;5.70;2.72;;;;;;;36.56;28.16;99437.69;1716344;81;21097;-65
2021/08/06 11:08:45;;;;;;;4.00;2.60;;;;;;;36.66;28.30;99436.19;1712756;81;21023;-62
2021/08/06 11:11:48;;;;;;;6.37;3.02;;;;;;;36.85;28.00;99422.91;1708019;83;21510;-65
2021/08/06 11:14:18;;;;;;;5.60;2.80;;;;;;;36.94;27.78;99417.37;1730876;81;21501;-63
2021/08/06 11:17:05;;;;;;;6.72;2.85;;;;;;;36.81;27.29;99429.67;1752787;81;20999;-64
2021/08/06 11:19:57;;;;;;;7.15;3.42;;;;;;;36.62;27.70;99420.45;1710672;81;21244;-65
2021/08/06 11:22:38;;;;;;;6.10;3.35;;;;;;;36.49;28.05;99417.28;1744713;81;20914;-61
2021/08/06 11:25:19;;;;;;;6.97;3.50;;;;;;;36.54;28.02;99416.33;1712659;83;21081;-65
2021/08/06 11:27:53;;;;;;;11.70;6.15;;;;;;;36.47;27.50;99416.28;1754155;81;28152;-65
2021/08/06 11:30:26;;;;;;;6.87;3.20;;;;;;;36.28;28.63;99423.30;1721840;83;21098;-65
2021/08/06 11:33:07;;;;;;;5.92;3.10;;;;;;;36.42;28.85;99411.77;1753409;81;21951;-64
2021/08/06 11:35:40;;;;;;;6.22;2.98;;;;;;;36.62;27.92;99425.30;1711230;81;21006;-64
2021/08/06 11:38:12;;;;;;;5.95;3.55;;;;;;;36.68;27.58;99412.16;1735153;80;21505;-65
2021/08/06 11:40:42;;;;;;;6.28;2.98;;;;;;;36.58;28.23;99400.66;1730987;80;20928;-65
2021/08/06 11:43:19;;;;;;;7.17;3.37;;;;;;;36.52;27.89;99395.59;1754083;80;21442;-64
2021/08/06 11:45:50;;;;;;;8.68;3.75;;;;;;;36.31;27.90;99407.63;1723048;81;22339;-64
2021/08/06 11:48:17;;;;;;;9.58;4.47;;;;;;;36.13;28.57;99391.78;1752384;81;20987;-61